SBGL/GIG METAR and TAF weather

Enter ICAO airport designator
Station Type Date Time Source
SBGL METAR 2023/02/04 01:00 UTC NOAA

SBGL 040100Z 27002KT 9999 FEW020 SCT100 27/23 Q1011


Station Type Date Time Source
SBGL Decoded METAR 2023/02/04 01:00 UTC NOAA

Galeao, Brazil (SBGL) 22-49S 043-15W 42M
Feb 03, 2023 - 08:00 PM EST / 2023.02.04 0100 UTC
Wind: from the W (270 degrees) at 2 MPH (2 KT):0
Visibility: greater than 7 mile(s):0
Sky conditions: partly cloudy
Temperature: 80 F (27 C)
Dew Point: 73 F (23 C)
Relative Humidity: 78%
Pressure (altimeter): 29.85 in. Hg (1011 hPa)
ob: SBGL 040100Z 27002KT 9999 FEW020 SCT100 27/23 Q1011
cycle: 1

Station Type Date Time Source
SBGL TAF 2023/02/04 06:21 UTC NOAA

TAF SBGL 040025Z 0406/0512 35007KT 9999 FEW020 TN25/0408Z TX37/0418Z
BECMG 0409/0411 02005KT
BECMG 0413/0415 02010KT SCT025
BECMG 0416/0418 14015KT FEW030
BECMG 0422/0424 24015KT 8000 SCT020 FEW035TCU
BECMG 0502/0504 33005KT CAVOK
BECMG 0507/0510 30005KT 9999 SCT025
RMK PGB

Example: see airport list